N180SN KRSN-KSHV
Flight info
| Callsign | N180SN |
|---|---|
| Flight time | 0h 16m |
| Altitude | 10000 |
| Route | / |
| Aircraft | C700/L-VGDW/C |
Departure
| Time | 2026-05-07 21:45 |
|---|---|
| Airport | Ruston Regional Airport (KRSN) |
Arrival
| Time | 2026-05-07 22:01 |
|---|---|
| Airport | Shreveport Regional Airport (KSHV) |
| Time | Latitude | Longitude | Altitude | Speed | Heading |
|---|---|---|---|---|---|
| 2026-05-07 21:38 | 32.50883 | -92.59040 | 317 ft | 0 kts | 115° |
| 2026-05-07 21:43 | 32.50875 | -92.59031 | 317 ft | 5 kts | 142° |
| 2026-05-07 21:43 | 32.50808 | -92.59022 | 319 ft | 13 kts | 178° |
| 2026-05-07 21:43 | 32.50779 | -92.58937 | 320 ft | 14 kts | 89° |
| 2026-05-07 21:44 | 32.50781 | -92.58847 | 321 ft | 3 kts | 52° |
| 2026-05-07 21:44 | 32.50799 | -92.58844 | 320 ft | 0 kts | 357° |
| 2026-05-07 21:44 | 32.50899 | -92.58845 | 317 ft | 56 kts | 0° |
| 2026-05-07 21:44 | 32.51668 | -92.58842 | 349 ft | 155 kts | 0° |
| 2026-05-07 21:45 | 32.52852 | -92.58865 | 1409 ft | 186 kts | 358° |
| 2026-05-07 21:45 | 32.54225 | -92.58970 | 2058 ft | 211 kts | 357° |
| 2026-05-07 21:45 | 32.55685 | -92.59076 | 2848 ft | 208 kts | 357° |
| 2026-05-07 21:45 | 32.57141 | -92.59386 | 4159 ft | 229 kts | 335° |
| 2026-05-07 21:46 | 32.58353 | -92.60730 | 5517 ft | 250 kts | 297° |
| 2026-05-07 21:46 | 32.58722 | -92.62713 | 7283 ft | 250 kts | 271° |
| 2026-05-07 21:46 | 32.58612 | -92.64751 | 9191 ft | 247 kts | 266° |
| 2026-05-07 21:46 | 32.58398 | -92.66763 | 10879 ft | 255 kts | 264° |
| 2026-05-07 21:47 | 32.58125 | -92.68977 | 11895 ft | 287 kts | 263° |
| 2026-05-07 21:47 | 32.57830 | -92.71455 | 12030 ft | 323 kts | 264° |
| 2026-05-07 21:47 | 32.57521 | -92.74183 | 12018 ft | 337 kts | 264° |
| 2026-05-07 21:47 | 32.57212 | -92.76912 | 12014 ft | 338 kts | 264° |
| 2026-05-07 21:48 | 32.56889 | -92.79712 | 12013 ft | 341 kts | 263° |
| 2026-05-07 21:48 | 32.56570 | -92.82486 | 12012 ft | 341 kts | 264° |
| 2026-05-07 21:48 | 32.56251 | -92.85250 | 12010 ft | 341 kts | 264° |
| 2026-05-07 21:48 | 32.55931 | -92.88049 | 12014 ft | 342 kts | 263° |
| 2026-05-07 21:49 | 32.55607 | -92.90849 | 12017 ft | 343 kts | 263° |
| 2026-05-07 21:49 | 32.55283 | -92.93631 | 12015 ft | 341 kts | 264° |
| 2026-05-07 21:49 | 32.54963 | -92.96412 | 12013 ft | 341 kts | 264° |
| 2026-05-07 21:49 | 32.54639 | -92.99199 | 12016 ft | 342 kts | 263° |
| 2026-05-07 21:50 | 32.54311 | -93.02005 | 12015 ft | 343 kts | 263° |
| 2026-05-07 21:50 | 32.53986 | -93.04800 | 12014 ft | 342 kts | 263° |
| 2026-05-07 21:50 | 32.53657 | -93.07602 | 12016 ft | 341 kts | 263° |
| 2026-05-07 21:50 | 32.53331 | -93.10385 | 12015 ft | 341 kts | 263° |
| 2026-05-07 21:51 | 32.53007 | -93.13156 | 12013 ft | 342 kts | 263° |
| 2026-05-07 21:51 | 32.52675 | -93.15971 | 12014 ft | 344 kts | 263° |
| 2026-05-07 21:51 | 32.52348 | -93.18767 | 11841 ft | 338 kts | 263° |
| 2026-05-07 21:51 | 32.52029 | -93.21451 | 11426 ft | 317 kts | 263° |
| 2026-05-07 21:52 | 32.51732 | -93.23941 | 11026 ft | 296 kts | 264° |
| 2026-05-07 21:52 | 32.51457 | -93.26257 | 10647 ft | 279 kts | 264° |
| 2026-05-07 21:52 | 32.51195 | -93.28478 | 10287 ft | 265 kts | 264° |
| 2026-05-07 21:52 | 32.50943 | -93.30611 | 9938 ft | 254 kts | 265° |
| 2026-05-07 21:53 | 32.50701 | -93.32659 | 9590 ft | 250 kts | 264° |
| 2026-05-07 21:53 | 32.50456 | -93.34717 | 9253 ft | 253 kts | 264° |
| 2026-05-07 21:53 | 32.50210 | -93.36777 | 8925 ft | 258 kts | 264° |
| 2026-05-07 21:53 | 32.49957 | -93.38895 | 8592 ft | 260 kts | 264° |
| 2026-05-07 21:54 | 32.49703 | -93.41018 | 8252 ft | 259 kts | 264° |
| 2026-05-07 21:54 | 32.49450 | -93.43118 | 7909 ft | 258 kts | 263° |
| 2026-05-07 21:54 | 32.49204 | -93.45162 | 7580 ft | 258 kts | 263° |
| 2026-05-07 21:54 | 32.48953 | -93.47283 | 7234 ft | 259 kts | 263° |
| 2026-05-07 21:55 | 32.48698 | -93.49377 | 6897 ft | 259 kts | 263° |
| 2026-05-07 21:55 | 32.48445 | -93.51480 | 6557 ft | 259 kts | 263° |
| 2026-05-07 21:55 | 32.48181 | -93.53591 | 6178 ft | 260 kts | 260° |
| 2026-05-07 21:55 | 32.47406 | -93.55568 | 5662 ft | 268 kts | 238° |
| 2026-05-07 21:56 | 32.46328 | -93.57380 | 5169 ft | 268 kts | 237° |
| 2026-05-07 21:56 | 32.45237 | -93.59141 | 4772 ft | 265 kts | 236° |
| 2026-05-07 21:56 | 32.44154 | -93.60894 | 4416 ft | 265 kts | 236° |
| 2026-05-07 21:56 | 32.43082 | -93.62663 | 4065 ft | 267 kts | 236° |
| 2026-05-07 21:57 | 32.42000 | -93.64443 | 3716 ft | 261 kts | 236° |
| 2026-05-07 21:57 | 32.40966 | -93.66132 | 3421 ft | 245 kts | 236° |
| 2026-05-07 21:57 | 32.39990 | -93.67730 | 3153 ft | 232 kts | 236° |
| 2026-05-07 21:57 | 32.39072 | -93.69239 | 2909 ft | 218 kts | 235° |
| 2026-05-07 21:58 | 32.38240 | -93.70597 | 2705 ft | 194 kts | 235° |
| 2026-05-07 21:58 | 32.37473 | -93.71854 | 2521 ft | 182 kts | 234° |
| 2026-05-07 21:58 | 32.36917 | -93.73204 | 2270 ft | 184 kts | 261° |
| 2026-05-07 21:58 | 32.36897 | -93.74671 | 2043 ft | 177 kts | 281° |
| 2026-05-07 21:59 | 32.37350 | -93.76010 | 1818 ft | 174 kts | 306° |
| 2026-05-07 21:59 | 32.38139 | -93.76972 | 1613 ft | 145 kts | 326° |
| 2026-05-07 21:59 | 32.38903 | -93.77621 | 1419 ft | 132 kts | 325° |
| 2026-05-07 21:59 | 32.39613 | -93.78287 | 1254 ft | 132 kts | 324° |
| 2026-05-07 22:00 | 32.40332 | -93.78938 | 1089 ft | 130 kts | 324° |
| 2026-05-07 22:00 | 32.41061 | -93.79593 | 899 ft | 130 kts | 324° |
| 2026-05-07 22:00 | 32.41780 | -93.80244 | 731 ft | 128 kts | 326° |
| 2026-05-07 22:00 | 32.42476 | -93.80863 | 560 ft | 125 kts | 324° |
| 2026-05-07 22:01 | 32.43179 | -93.81490 | 406 ft | 128 kts | 324° |
| 2026-05-07 22:01 | 32.43878 | -93.82137 | 264 ft | 125 kts | 324° |
| 2026-05-07 22:01 | 32.44453 | -93.82652 | 247 ft | 79 kts | 322° |
| 2026-05-07 22:01 | 32.44737 | -93.82907 | 241 ft | 24 kts | 322° |
| 2026-05-07 22:02 | 32.44834 | -93.82928 | 243 ft | 16 kts | 51° |
| 2026-05-07 22:02 | 32.44911 | -93.82828 | 246 ft | 17 kts | 36° |
| 2026-05-07 22:02 | 32.45027 | -93.82784 | 248 ft | 19 kts | 1° |
| 2026-05-07 22:02 | 32.45132 | -93.82817 | 249 ft | 11 kts | 315° |
| 2026-05-07 22:03 | 32.45128 | -93.82857 | 249 ft | 5 kts | 178° |
| 2026-05-07 22:03 | 32.45117 | -93.82857 | 249 ft | 0 kts | 181° |